Terminal Aerodrome Forecast
Issued by NWS

Home | Current Version | Previous Version | Text Only | Print | Product List | Glossary On
Versions: 1 2 3 4 5 6 7 8 9 10 11 12 13
000
FTUS44 KLUB 270900 AAB
TAFCDS
TAF AMD
KCDS 270918Z 2709/2806 01013KT 3SM -SN BKN025 OVC050
      TEMPO 2709/2711 1SM -SN
     FM271100 35012KT P6SM SCT050 OVC080
     FM271700 36009KT P6SM SCT100=

USA.gov is the U.S. government's official web portal to all federal, state and local government web resources and services.